Time;durP1;ratioP1;P1;durP2;ratioP2;P2;SDS_P1;SDS_P2;PMS_P1;PMS_P2;Temp;Humidity;BMP_temperature;BMP_pressure;BME280_temperature;BME280_humidity;BME280_pressure;Samples;Min_cycle;Max_cycle;Signal;HPM_P1;HPM_P2
2023/07/23 04:17:56;;;;;;;6.97;6.37;;;16.30;99.90;;;;;;4891895;29;20491;-90
2023/07/23 09:05:05;;;;;;;18.60;5.17;;;21.30;1.00;;;;;;4976221;28;20480;-87
2023/07/23 09:07:37;;;;;;;5.70;5.20;;;21.30;1.00;;;;;;4958581;29;20436;-87
2023/07/23 09:10:06;;;;;;;7.47;6.70;;;21.30;1.00;;;;;;4958660;29;20463;-87
2023/07/23 09:12:44;;;;;;;5.53;4.90;;;21.50;1.00;;;;;;4952222;29;20443;-87
2023/07/23 09:15:14;;;;;;;5.73;5.10;;;21.40;1.00;;;;;;4947672;29;20443;-87
2023/07/23 09:17:43;;;;;;;6.30;5.70;;;21.70;1.00;;;;;;4946833;29;20486;-87
2023/07/23 09:20:18;;;;;;;5.17;4.20;;;21.80;1.00;;;;;;4954427;29;20457;-86
2023/07/23 09:22:48;;;;;;;8.33;5.50;;;;;;;;;;4952086;29;21007;-86
2023/07/23 09:25:17;;;;;;;5.30;4.80;;;;;;;;;;4947865;29;20439;-86
2023/07/23 09:27:48;;;;;;;6.13;5.53;;;;;;;;;;4949105;29;20486;-87
2023/07/23 09:30:23;;;;;;;5.90;5.33;;;22.10;1.00;;;;;;4947877;29;20976;-87
2023/07/23 09:33:02;;;;;;;6.90;6.30;;;22.10;1.00;;;;;;4946723;29;20955;-87
2023/07/23 09:36:05;;;;;;;6.43;5.83;;;22.30;1.00;;;;;;4947384;29;20533;-86
2023/07/23 09:38:45;;;;;;;6.60;5.10;;;22.40;1.00;;;;;;4945810;29;20459;-86
2023/07/23 09:41:12;;;;;;;8.20;5.20;;;;;;;;;;4950725;29;20502;-86
2023/07/23 09:43:40;;;;;;;23.53;18.17;;;;;;;;;;4949402;29;20481;-86
2023/07/23 09:46:07;;;;;;;8.90;7.10;;;22.50;1.00;;;;;;4949161;29;20821;-85
2023/07/23 09:48:34;;;;;;;5.10;4.70;;;22.50;1.00;;;;;;4954414;29;20533;-86
2023/07/23 09:51:01;;;;;;;6.37;4.63;;;22.40;1.00;;;;;;4953360;29;20443;-86
2023/07/23 09:53:30;;;;;;;5.13;4.63;;;22.30;1.00;;;;;;4952713;29;20952;-87
2023/07/23 09:55:59;;;;;;;5.50;4.53;;;22.40;1.00;;;;;;4957520;29;20530;-86
2023/07/23 09:58:30;;;;;;;6.73;5.57;;;22.50;1.00;;;;;;4962163;29;20470;-86
2023/07/23 10:00:57;;;;;;;7.53;6.80;;;22.60;1.00;;;;;;4961173;29;20451;-87
2023/07/23 10:03:25;;;;;;;6.77;5.60;;;22.60;1.00;;;;;;4959619;29;20885;-87
2023/07/23 10:06:02;;;;;;;7.50;5.93;;;22.70;1.00;;;;;;4955429;29;20447;-86
2023/07/23 10:08:30;;;;;;;5.30;4.80;;;22.70;1.00;;;;;;4954659;29;20463;-86
2023/07/23 10:10:59;;;;;;;5.30;4.77;;;22.60;1.00;;;;;;4945309;29;20501;-89
2023/07/23 10:14:03;;;;;;;5.63;5.13;;;23.10;93.70;;;;;;4956453;29;20455;-90
2023/07/23 10:17:20;;;;;;;8.13;6.13;;;22.90;1.00;;;;;;4948976;29;20513;-89
2023/07/23 10:20:20;;;;;;;5.70;5.20;;;23.10;1.00;;;;;;4937000;29;20463;-90
2023/07/23 10:22:47;;;;;;;8.07;7.27;;;;;;;;;;4940795;29;20467;-87
2023/07/23 10:25:25;;;;;;;8.03;6.73;;;23.00;38.50;;;;;;4946374;29;20463;-87
2023/07/23 10:28:00;;;;;;;8.27;6.70;;;23.20;1.00;;;;;;4948092;29;20482;-87
2023/07/23 10:30:28;;;;;;;8.33;5.60;;;23.30;1.00;;;;;;4945755;29;20443;-87
2023/07/23 10:33:29;;;;;;;5.13;4.63;;;23.30;1.00;;;;;;4944959;29;20451;-87
2023/07/23 10:36:04;;;;;;;5.23;4.83;;;23.30;1.00;;;;;;4944456;29;20509;-87
2023/07/23 10:38:32;;;;;;;5.93;5.40;;;23.40;99.90;;;;;;4943270;29;20461;-88
2023/07/23 10:41:00;;;;;;;6.00;5.50;;;23.50;99.90;;;;;;4944514;29;20485;-88
2023/07/23 10:43:46;;;;;;;5.93;5.33;;;23.60;1.00;;;;;;4945306;29;20539;-87
2023/07/23 10:46:15;;;;;;;8.93;7.13;;;23.60;99.90;;;;;;4944772;29;20475;-88
2023/07/23 10:48:49;;;;;;;5.80;5.30;;;24.00;34.60;;;;;;4947932;29;20450;-88
2023/07/23 10:51:19;;;;;;;8.20;5.70;;;23.70;99.90;;;;;;4947110;29;20426;-87
2023/07/23 10:53:57;;;;;;;5.70;5.20;;;24.20;40.70;;;;;;4950692;29;20530;-88
2023/07/23 10:56:29;;;;;;;5.93;5.43;;;23.90;1.00;;;;;;4951289;29;20510;-87
2023/07/23 10:59:02;;;;;;;6.37;5.50;;;23.90;1.00;;;;;;4953762;29;20530;-87
2023/07/23 11:01:29;;;;;;;10.40;5.67;;;23.90;99.90;;;;;;4953711;29;20495;-87
2023/07/23 11:03:58;;;;;;;9.80;7.30;;;23.20;1.00;;;;;;4957941;29;20449;-87
2023/07/23 11:06:31;;;;;;;8.27;6.23;;;24.00;1.00;;;;;;4952870;29;20467;-88
2023/07/23 11:09:00;;;;;;;8.10;7.30;;;23.60;48.50;;;;;;4946072;29;20489;-87
2023/07/23 11:11:38;;;;;;;11.23;7.77;;;23.80;1.00;;;;;;4951632;29;20455;-87
2023/07/23 11:14:22;;;;;;;12.93;9.40;;;24.30;55.50;;;;;;4948278;29;20514;-87
2023/07/23 11:16:50;;;;;;;12.53;7.37;;;24.10;1.00;;;;;;4951233;29;20518;-86
2023/07/23 11:19:18;;;;;;;9.27;7.00;;;24.30;1.00;;;;;;4949176;29;20537;-87
2023/07/23 11:21:46;;;;;;;7.33;6.10;;;24.30;1.00;;;;;;4953116;29;20455;-87
2023/07/23 11:24:17;;;;;;;5.70;5.10;;;24.40;1.00;;;;;;4953024;29;20451;-87
2023/07/23 11:26:44;;;;;;;8.27;6.07;;;24.40;1.00;;;;;;4952060;29;20525;-87
2023/07/23 11:29:13;;;;;;;8.70;7.70;;;24.50;1.00;;;;;;4953902;29;20515;-88
2023/07/23 11:31:40;;;;;;;7.50;6.80;;;24.50;1.00;;;;;;4952988;29;20459;-88
2023/07/23 11:34:08;;;;;;;8.47;7.60;;;24.60;1.00;;;;;;4950595;29;20519;-88
2023/07/23 11:36:36;;;;;;;8.17;6.60;;;24.70;1.00;;;;;;4948943;29;20490;-88
2023/07/23 11:39:04;;;;;;;9.70;7.17;;;24.70;1.00;;;;;;4950805;29;20495;-86
2023/07/23 11:41:33;;;;;;;6.70;6.00;;;24.80;1.00;;;;;;4953571;29;20486;-86
2023/07/23 11:44:03;;;;;;;9.00;6.27;;;24.90;1.00;;;;;;4960404;29;20463;-85
2023/07/23 11:46:33;;;;;;;15.10;10.20;;;24.90;1.00;;;;;;4959754;29;20471;-85
2023/07/23 11:49:00;;;;;;;9.70;7.93;;;24.90;1.00;;;;;;4949994;29;20515;-87
2023/07/23 11:51:28;;;;;;;6.30;5.17;;;24.80;1.00;;;;;;4958585;29;20441;-86
2023/07/23 11:54:02;;;;;;;6.50;5.90;;;24.80;1.00;;;;;;4960889;29;20471;-87
2023/07/23 11:56:30;;;;;;;6.87;6.17;;;24.80;1.00;;;;;;4959578;29;20463;-87
2023/07/23 11:59:03;;;;;;;7.87;7.07;;;24.80;1.00;;;;;;4955178;29;20450;-87
2023/07/23 12:01:31;;;;;;;8.37;6.37;;;24.90;1.00;;;;;;4955504;29;20435;-87
2023/07/23 12:04:03;;;;;;;7.87;5.47;;;24.90;1.00;;;;;;4956053;29;20477;-87
2023/07/23 12:06:30;;;;;;;6.83;5.80;;;25.00;99.90;;;;;;4959949;29;20471;-87
2023/07/23 12:08:57;;;;;;;8.97;6.83;;;25.00;99.90;;;;;;4960634;29;20435;-86
2023/07/23 12:11:27;;;;;;;7.43;5.60;;;25.00;99.90;;;;;;4960828;29;20439;-86
2023/07/23 12:13:55;;;;;;;6.17;4.40;;;25.10;99.90;;;;;;4956848;29;20479;-87
2023/07/23 12:16:35;;;;;;;5.73;4.70;;;25.20;99.90;;;;;;4947451;29;20481;-88
2023/07/23 12:19:04;;;;;;;7.03;6.33;;;25.30;99.90;;;;;;4945878;29;20490;-86
2023/07/23 12:21:32;;;;;;;6.40;5.43;;;25.40;99.90;;;;;;4944636;29;20446;-86
2023/07/23 12:24:15;;;;;;;7.00;5.10;;;25.40;99.90;;;;;;4943930;29;20451;-86
2023/07/23 12:26:42;;;;;;;6.67;4.90;;;25.40;99.90;;;;;;4944770;29;20469;-87
2023/07/23 12:29:09;;;;;;;5.30;3.90;;;25.50;99.90;;;;;;4945074;29;20428;-86
2023/07/23 12:31:40;;;;;;;9.67;6.07;;;25.40;99.90;;;;;;4946523;29;20522;-87
2023/07/23 12:34:07;;;;;;;5.40;4.90;;;25.40;99.90;;;;;;4952750;29;20423;-85
2023/07/23 12:36:34;;;;;;;6.13;5.30;;;25.40;99.90;;;;;;4953061;29;20570;-88
2023/07/23 12:39:01;;;;;;;8.13;5.20;;;25.40;99.90;;;;;;4948133;29;20507;-85
2023/07/23 12:41:28;;;;;;;6.00;5.40;;;25.30;99.90;;;;;;4949072;29;20892;-86
2023/07/23 12:43:56;;;;;;;4.47;3.60;;;25.30;99.90;;;;;;4949160;29;20489;-90
2023/07/23 12:46:26;;;;;;;5.97;5.17;;;25.10;99.90;;;;;;4950560;29;20550;-91
2023/07/23 12:48:55;;;;;;;5.30;4.80;;;25.30;99.90;;;;;;4947774;29;20451;-90
2023/07/23 12:51:22;;;;;;;5.60;4.70;;;;;;;;;;4945620;29;20499;-89
2023/07/23 12:53:49;;;;;;;6.90;5.80;;;25.40;99.90;;;;;;4946943;29;20779;-89
2023/07/23 12:56:16;;;;;;;7.83;5.30;;;25.50;99.90;;;;;;4948422;29;20471;-89
2023/07/23 12:58:43;;;;;;;8.60;6.50;;;25.40;99.90;;;;;;4948391;29;20546;-89
2023/07/23 13:01:13;;;;;;;6.63;5.23;;;;;;;;;;4950095;29;20537;-90
2023/07/23 13:03:47;;;;;;;6.47;5.57;;;;;;;;;;4948377;29;20451;-89
2023/07/23 13:06:15;;;;;;;5.87;4.20;;;25.70;99.90;;;;;;4947959;29;20479;-89
2023/07/23 13:08:42;;;;;;;9.40;5.30;;;25.30;99.90;;;;;;4949206;29;20447;-88
2023/07/23 13:11:09;;;;;;;3.20;2.90;;;25.20;1.00;;;;;;4956257;29;20435;-87
2023/07/23 13:13:36;;;;;;;5.30;4.60;;;25.40;99.90;;;;;;4954618;29;20936;-87
2023/07/23 13:16:03;;;;;;;3.47;3.00;;;25.50;99.90;;;;;;4999071;23;20500;-89
2023/07/23 13:18:30;;;;;;;3.87;3.47;;;25.70;1.00;;;;;;4986536;28;20559;-87
2023/07/23 13:21:05;;;;;;;4.30;3.97;;;25.70;99.90;;;;;;4985939;28;20453;-87
2023/07/23 13:23:34;;;;;;;4.90;4.37;;;25.80;99.90;;;;;;4987265;28;20535;-87
2023/07/23 13:26:01;;;;;;;7.43;3.93;;;25.70;99.90;;;;;;4985427;28;20493;-88
2023/07/23 13:31:46;;;;;;;4.83;3.60;;;;;;;;;;4965200;28;20438;-88
2023/07/23 13:34:14;;;;;;;5.90;4.60;;;25.80;99.90;;;;;;4985987;28;20521;-88
2023/07/23 13:36:41;;;;;;;5.70;4.70;;;25.70;99.90;;;;;;4988612;28;20588;-87
2023/07/23 13:39:12;;;;;;;5.10;4.20;;;25.70;99.90;;;;;;4986271;28;20492;-87
2023/07/23 13:41:39;;;;;;;5.80;5.20;;;25.60;99.90;;;;;;4984642;28;20468;-87
2023/07/23 13:44:06;;;;;;;7.13;5.80;;;;;;;;;;4984399;28;20434;-88
2023/07/23 13:46:33;;;;;;;5.53;4.80;;;25.50;99.90;;;;;;4986341;28;20465;-88
2023/07/23 13:49:01;;;;;;;9.27;5.53;;;;;;;;;;4989491;28;20449;-87
2023/07/23 13:51:28;;;;;;;5.40;4.70;;;25.40;99.90;;;;;;4989377;28;20441;-88
2023/07/23 13:53:54;;;;;;;7.90;6.30;;;25.40;99.90;;;;;;4988027;28;20449;-88
2023/07/23 13:56:23;;;;;;;5.40;5.00;;;25.50;99.90;;;;;;4988796;28;20494;-89
2023/07/23 13:58:54;;;;;;;8.10;6.37;;;25.20;99.90;;;;;;4985737;28;20485;-87
2023/07/23 14:01:21;;;;;;;7.17;6.03;;;;;;;;;;4985883;28;20468;-87
2023/07/23 14:03:52;;;;;;;6.57;5.40;;;25.20;99.90;;;;;;4989659;28;20453;-87
2023/07/23 14:06:21;;;;;;;10.27;8.10;;;25.10;99.90;;;;;;4984964;28;20497;-88
2023/07/23 14:08:48;;;;;;;6.23;4.23;;;25.00;99.90;;;;;;4985856;28;20556;-89
2023/07/23 14:11:15;;;;;;;6.37;4.60;;;25.00;99.90;;;;;;4986091;28;20453;-88
2023/07/23 14:13:44;;;;;;;4.10;3.70;;;24.90;99.90;;;;;;4985576;28;20445;-87
2023/07/23 14:16:10;;;;;;;5.60;4.83;;;24.90;99.90;;;;;;4983841;28;21009;-87
2023/07/23 14:18:37;;;;;;;5.10;4.23;;;25.10;1.00;;;;;;4984636;28;20552;-88
2023/07/23 14:21:04;;;;;;;7.10;4.60;;;24.60;1.00;;;;;;4995196;28;20453;-87
2023/07/23 14:23:34;;;;;;;5.20;4.70;;;24.90;99.90;;;;;;5000919;28;20509;-88
2023/07/23 14:26:01;;;;;;;10.47;3.97;;;24.50;1.00;;;;;;5000489;28;20473;-88
2023/07/23 14:28:28;;;;;;;8.03;4.03;;;24.80;99.90;;;;;;4991229;28;20544;-88
2023/07/23 14:30:56;;;;;;;6.37;4.67;;;24.50;1.00;;;;;;4983693;28;20449;-88
2023/07/23 14:33:24;;;;;;;7.83;4.17;;;25.10;1.00;;;;;;4983541;28;20484;-88
2023/07/23 14:35:53;;;;;;;6.80;4.10;;;;;;;;;;4988654;28;20484;-87
2023/07/23 14:38:20;;;;;;;8.30;6.80;;;24.90;99.90;;;;;;4983629;28;20485;-87
2023/07/23 14:40:49;;;;;;;5.20;4.30;;;;;;;;;;5059986;23;20485;-88
2023/07/23 14:43:16;;;;;;;9.10;5.00;;;;;;;;;;5000436;28;20462;-89
2023/07/23 14:45:44;;;;;;;8.97;5.20;;;;;;;;;;4994827;28;20460;-89
2023/07/23 14:48:13;;;;;;;6.10;4.40;;;23.10;99.90;;;;;;4985903;28;20449;-89
2023/07/23 14:50:47;;;;;;;11.70;7.03;;;24.30;99.90;;;;;;4986788;28;20433;-90
2023/07/23 14:53:23;;;;;;;8.60;4.50;;;24.30;99.90;;;;;;4996130;28;20433;-90
2023/07/23 14:55:51;;;;;;;10.70;5.60;;;;;;;;;;4997080;28;20460;-90
2023/07/23 14:58:20;;;;;;;6.80;4.70;;;24.10;99.90;;;;;;4997125;28;20485;-90
2023/07/23 15:00:51;;;;;;;11.83;4.70;;;24.10;99.90;;;;;;4996040;28;20443;-90
2023/07/23 15:03:21;;;;;;;6.50;5.10;;;23.70;1.00;;;;;;4997807;28;20429;-89
2023/07/23 15:05:48;;;;;;;4.80;3.93;;;24.10;99.90;;;;;;4997043;28;20536;-88
2023/07/23 15:08:15;;;;;;;11.60;7.07;;;;;;;;;;4996679;28;20550;-89
2023/07/23 15:10:43;;;;;;;7.63;5.47;;;;;;;;;;4998153;28;20438;-89
2023/07/23 15:13:10;;;;;;;9.33;5.50;;;24.00;99.90;;;;;;4994955;28;20481;-89
2023/07/23 15:15:38;;;;;;;7.33;5.13;;;24.00;99.90;;;;;;4985345;28;20540;-88
2023/07/23 15:18:05;;;;;;;5.30;4.80;;;23.90;99.90;;;;;;4994196;28;20481;-89
2023/07/23 15:20:35;;;;;;;6.27;4.83;;;23.90;99.90;;;;;;4997035;28;20449;-88
2023/07/23 15:23:02;;;;;;;5.90;4.23;;;23.90;99.90;;;;;;4989662;28;20491;-89
2023/07/23 15:25:30;;;;;;;4.83;4.10;;;23.90;99.90;;;;;;4983121;28;20477;-89
2023/07/23 15:28:02;;;;;;;7.53;5.07;;;23.90;99.90;;;;;;4983473;28;20544;-88
2023/07/23 15:30:28;;;;;;;4.70;4.20;;;23.90;99.90;;;;;;4989507;28;20454;-89
2023/07/23 15:32:55;;;;;;;5.90;5.40;;;23.80;99.90;;;;;;4992905;28;20429;-89
2023/07/23 15:35:22;;;;;;;5.67;4.30;;;23.50;1.00;;;;;;4993866;28;20513;-88
2023/07/23 15:37:50;;;;;;;4.83;3.50;;;23.80;99.90;;;;;;4991896;28;20492;-88
2023/07/23 15:40:17;;;;;;;7.40;5.33;;;23.90;99.90;;;;;;4988028;28;20477;-89
2023/07/23 15:42:46;;;;;;;7.43;5.40;;;23.80;99.90;;;;;;4985312;28;20429;-90
2023/07/23 15:45:13;;;;;;;5.10;4.60;;;;;;;;;;4985318;28;20445;-89
2023/07/23 15:47:40;;;;;;;5.00;4.50;;;23.70;99.90;;;;;;4983822;28;20461;-89
2023/07/23 15:50:09;;;;;;;7.37;4.00;;;;;;;;;;4983401;28;20551;-89
2023/07/23 15:52:36;;;;;;;6.90;4.33;;;23.70;99.90;;;;;;4984284;28;20457;-88
2023/07/23 15:55:05;;;;;;;4.57;4.10;;;23.70;99.90;;;;;;4985480;28;20958;-89
2023/07/23 15:57:32;;;;;;;3.90;3.60;;;;;;;;;;4986348;28;20876;-89
2023/07/23 15:59:59;;;;;;;26.73;21.70;;;23.90;1.00;;;;;;4986671;28;20912;-88
2023/07/23 16:02:26;;;;;;;7.83;6.73;;;23.70;99.90;;;;;;4992684;28;20504;-89
2023/07/23 16:04:53;;;;;;;7.20;5.30;;;23.40;1.00;;;;;;4995910;28;20472;-89
2023/07/23 16:07:20;;;;;;;5.33;3.53;;;23.70;1.00;;;;;;4994004;28;20449;-89
2023/07/23 16:09:47;;;;;;;7.43;5.00;;;23.60;99.90;;;;;;4992445;28;20445;-89
2023/07/23 16:12:16;;;;;;;10.47;9.27;;;23.60;99.90;;;;;;4990181;28;20476;-89
2023/07/23 16:14:43;;;;;;;3.93;3.40;;;23.60;99.90;;;;;;4991741;28;20461;-89
2023/07/23 16:17:10;;;;;;;7.40;5.70;;;;;;;;;;4990556;28;20508;-87
2023/07/23 16:19:37;;;;;;;16.57;13.87;;;23.60;99.90;;;;;;4990416;28;20489;-88
2023/07/23 16:22:04;;;;;;;6.73;5.90;;;23.60;99.90;;;;;;4988546;28;20476;-89
2023/07/23 16:24:31;;;;;;;6.43;4.73;;;23.60;99.90;;;;;;4988006;28;20454;-88
2023/07/23 16:26:59;;;;;;;5.90;5.30;;;23.60;99.90;;;;;;4989918;28;20480;-88
2023/07/23 16:29:27;;;;;;;4.30;3.67;;;23.60;99.90;;;;;;4989023;28;20437;-88
2023/07/23 16:31:55;;;;;;;9.80;7.80;;;23.70;99.90;;;;;;4995465;28;20437;-89
2023/07/23 16:34:22;;;;;;;5.80;4.27;;;23.80;99.90;;;;;;4996855;28;20477;-88
2023/07/23 16:36:51;;;;;;;5.87;4.27;;;23.80;99.90;;;;;;4999435;28;20465;-88
2023/07/23 16:39:19;;;;;;;6.17;5.37;;;23.80;99.90;;;;;;5000460;28;20477;-89
2023/07/23 16:41:46;;;;;;;6.33;5.70;;;23.80;99.90;;;;;;4998409;28;20444;-89
2023/07/23 16:44:14;;;;;;;8.50;6.43;;;23.40;1.00;;;;;;5002418;28;20480;-90
2023/07/23 16:46:42;;;;;;;4.80;3.33;;;23.70;99.90;;;;;;5002688;28;20453;-90
2023/07/23 16:49:09;;;;;;;7.73;6.00;;;23.70;99.90;;;;;;5002395;28;20492;-90
2023/07/23 16:51:36;;;;;;;6.20;3.30;;;23.60;99.90;;;;;;4993834;28;20497;-89
2023/07/23 16:54:02;;;;;;;3.50;3.20;;;23.60;99.90;;;;;;4988616;28;20468;-89
2023/07/23 16:56:30;;;;;;;5.93;3.50;;;23.60;99.90;;;;;;4985454;28;20954;-88
2023/07/23 16:58:57;;;;;;;5.30;3.27;;;;;;;;;;4986166;28;20504;-89
2023/07/23 17:01:24;;;;;;;9.40;7.03;;;23.50;99.90;;;;;;4985194;28;20449;-90
2023/07/23 17:03:52;;;;;;;5.20;4.47;;;23.40;99.90;;;;;;4986932;28;20531;-90
2023/07/23 17:06:22;;;;;;;4.10;3.70;;;23.30;99.90;;;;;;4986035;28;20449;-89
2023/07/23 17:08:49;;;;;;;3.80;3.40;;;23.20;99.90;;;;;;4986148;28;20500;-89
2023/07/23 17:11:22;;;;;;;3.73;3.30;;;23.20;99.90;;;;;;4986642;28;20472;-89
2023/07/23 17:13:50;;;;;;;3.23;2.67;;;23.10;99.90;;;;;;4991221;28;20417;-89
2023/07/23 17:16:17;;;;;;;3.67;3.37;;;23.00;1.00;;;;;;4991481;28;20481;-89
2023/07/23 17:18:44;;;;;;;4.77;2.90;;;;;;;;;;4988723;28;20469;-88
2023/07/23 17:21:12;;;;;;;5.20;2.80;;;23.10;99.90;;;;;;4999647;28;20453;-89
2023/07/23 17:23:39;;;;;;;4.67;4.27;;;23.10;99.90;;;;;;4993863;28;20492;-89
2023/07/23 17:26:06;;;;;;;3.97;3.67;;;23.30;1.00;;;;;;4994788;28;20496;-88
2023/07/23 17:28:33;;;;;;;10.57;4.83;;;23.00;99.90;;;;;;4990846;28;20472;-89
2023/07/23 17:31:02;;;;;;;3.60;3.30;;;23.00;99.90;;;;;;4998594;28;20473;-89
2023/07/23 17:33:29;;;;;;;4.37;3.97;;;23.00;99.90;;;;;;4997119;28;20450;-87
2023/07/23 17:35:56;;;;;;;4.57;3.60;;;23.00;99.90;;;;;;4985610;28;20533;-87
2023/07/23 17:38:25;;;;;;;6.60;4.57;;;23.00;99.90;;;;;;4984714;28;20491;-87
2023/07/23 17:40:51;;;;;;;6.90;5.57;;;22.90;99.90;;;;;;4999068;28;20488;-87
2023/07/23 17:43:18;;;;;;;7.30;5.73;;;23.10;1.00;;;;;;5001882;28;20461;-87
2023/07/23 17:45:45;;;;;;;5.63;4.70;;;22.90;99.90;;;;;;4989683;28;20477;-87
2023/07/23 17:48:12;;;;;;;6.30;5.67;;;23.00;99.90;;;;;;4984457;28;20446;-87
2023/07/23 17:50:39;;;;;;;8.60;7.23;;;23.10;1.00;;;;;;4983785;28;20459;-86
2023/07/23 17:53:06;;;;;;;6.17;4.77;;;22.80;99.90;;;;;;4982815;28;20455;-87
2023/07/23 17:55:35;;;;;;;20.90;15.90;;;22.80;99.90;;;;;;4982606;28;20472;-87
2023/07/23 17:58:03;;;;;;;5.87;4.63;;;22.80;99.90;;;;;;4984300;28;20449;-87
2023/07/23 18:00:39;;;;;;;11.60;6.00;;;22.80;99.90;;;;;;4986945;28;20465;-91
2023/07/23 18:03:06;;;;;;;6.90;5.60;;;23.70;99.90;;;;;;4995069;28;20457;-86
2023/07/23 18:05:33;;;;;;;7.07;5.80;;;22.70;99.90;;;;;;4983734;28;20496;-86
2023/07/23 18:08:00;;;;;;;6.10;5.20;;;22.70;99.90;;;;;;4983042;28;20973;-89
2023/07/23 18:10:28;;;;;;;14.07;10.50;;;22.70;99.90;;;;;;4989940;28;20449;-87
2023/07/23 18:12:57;;;;;;;4.90;3.73;;;22.70;99.90;;;;;;4998635;28;20484;-87
2023/07/23 18:15:47;;;;;;;5.93;5.07;;;22.60;99.90;;;;;;5040464;23;20496;-87
2023/07/23 18:18:14;;;;;;;8.27;6.40;;;;;;;;;;4987354;28;20505;-86
2023/07/23 18:20:41;;;;;;;4.40;4.00;;;22.60;99.90;;;;;;4994533;28;20505;-87
2023/07/23 18:23:10;;;;;;;9.13;5.27;;;;;;;;;;5061987;23;20525;-87
2023/07/23 18:25:37;;;;;;;7.73;3.73;;;;;;;;;;4986948;28;20473;-86
2023/07/23 18:28:05;;;;;;;13.03;8.00;;;22.50;99.90;;;;;;4983695;28;20472;-86
2023/07/23 18:30:33;;;;;;;16.87;11.93;;;22.50;99.90;;;;;;4984657;28;20438;-88
2023/07/23 18:33:01;;;;;;;6.50;4.70;;;;;;;;;;4986975;28;20505;-85
2023/07/23 18:35:28;;;;;;;7.83;4.07;;;22.40;99.90;;;;;;4987215;28;21018;-87
2023/07/23 18:50:26;;;;;;;4.23;3.17;;;22.30;99.90;;;;;;5039837;23;20492;-89
2023/07/23 18:53:57;;;;;;;6.70;3.30;;;22.20;99.90;;;;;;4922400;29;20464;-91
2023/07/23 18:56:55;;;;;;;6.00;4.23;;;22.10;99.90;;;;;;4955729;28;20540;-89
2023/07/23 18:59:33;;;;;;;5.23;4.60;;;21.80;1.00;;;;;;4984735;28;21073;-89
2023/07/23 19:02:06;;;;;;;6.77;5.57;;;;;;;;;;4983661;28;20869;-88
2023/07/23 19:04:47;;;;;;;3.47;3.23;;;21.50;1.00;;;;;;4984674;28;20524;-88
2023/07/23 19:07:16;;;;;;;6.13;3.47;;;;;;;;;;4983885;28;20529;-89
2023/07/23 19:09:44;;;;;;;4.90;2.43;;;;;;;;;;4983256;28;20540;-89
2023/07/23 19:12:15;;;;;;;3.73;2.80;;;;;;;;;;4982460;28;20580;-89
2023/07/23 19:14:53;;;;;;;3.33;2.27;;;18.80;1.00;;;;;;4984301;28;20432;-90
2023/07/23 19:17:34;;;;;;;2.70;2.47;;;20.60;1.00;;;;;;4989720;28;20483;-87
2023/07/23 19:20:04;;;;;;;5.57;3.30;;;;;;;;;;4986819;28;20472;-89
2023/07/23 19:22:31;;;;;;;2.57;2.33;;;;;;;;;;4986847;28;20810;-88
2023/07/23 19:24:58;;;;;;;3.17;2.70;;;;;;;;;;4984734;28;20901;-87
2023/07/23 19:27:26;;;;;;;5.00;3.30;;;;;;;;;;4987122;28;20483;-88
2023/07/23 19:29:54;;;;;;;2.87;2.63;;;20.50;1.00;;;;;;4981567;28;20442;-87
2023/07/23 19:32:22;;;;;;;3.50;3.20;;;;;;;;;;4986901;28;20434;-86
2023/07/23 19:34:49;;;;;;;5.30;4.20;;;;;;;;;;4984510;28;20460;-88
2023/07/23 19:37:19;;;;;;;3.90;3.50;;;;;;;;;;4993769;28;20460;-87
2023/07/23 19:39:49;;;;;;;4.03;3.40;;;20.60;1.00;;;;;;4995570;28;20479;-87
2023/07/23 19:42:23;;;;;;;3.90;3.37;;;;;;;;;;4988053;28;20441;-87
2023/07/23 19:44:51;;;;;;;4.57;3.50;;;;;;;;;;4982344;28;20888;-87
2023/07/23 19:47:22;;;;;;;4.67;3.60;;;20.50;1.00;;;;;;4982508;28;20478;-88
2023/07/23 19:49:50;;;;;;;4.70;2.70;;;;;;;;;;4999885;28;20480;-87
2023/07/23 19:52:20;;;;;;;3.23;2.93;;;20.50;1.00;;;;;;4999955;28;20439;-88
2023/07/23 19:58:29;;;;;;;5.50;4.00;;;;;;;;;;4930411;29;20436;-88
2023/07/23 20:01:03;;;;;;;3.97;3.40;;;20.50;1.00;;;;;;4931792;29;20574;-88
2023/07/23 20:03:33;;;;;;;4.20;3.80;;;20.90;1.00;;;;;;4955400;28;20449;-88
2023/07/23 20:06:09;;;;;;;5.53;4.10;;;20.50;1.00;;;;;;4983262;28;20480;-87
2023/07/23 20:13:08;;;;;;;3.70;3.40;;;20.40;1.00;;;;;;4809552;29;20532;-89
2023/07/23 20:16:05;;;;;;;6.17;4.50;;;20.30;1.00;;;;;;4865628;28;20552;-87
2023/07/23 20:18:49;;;;;;;5.80;3.93;;;20.30;1.00;;;;;;4984984;28;20469;-87
2023/07/23 20:21:26;;;;;;;3.63;3.27;;;20.30;1.00;;;;;;4984332;28;20467;-88
2023/07/23 20:23:57;;;;;;;4.53;3.23;;;20.30;1.00;;;;;;4983949;28;20798;-87
2023/07/23 20:27:07;;;;;;;4.63;4.23;;;20.30;1.00;;;;;;4984091;28;20469;-86
2023/07/23 20:30:24;;;;;;;4.53;4.03;;;20.20;1.00;;;;;;4987229;28;20537;-86
2023/07/23 20:32:57;;;;;;;8.93;6.40;;;21.40;1.00;;;;;;4987105;28;20482;-87
2023/07/23 20:41:50;;;;;;;6.70;4.57;;;20.10;1.00;;;;;;4993802;28;20567;-87
2023/07/23 20:44:20;;;;;;;4.90;4.40;;;20.00;1.00;;;;;;4992458;28;20544;-87
2023/07/23 20:46:49;;;;;;;5.17;4.67;;;;;;;;;;4983175;28;20536;-87
2023/07/23 20:49:16;;;;;;;6.23;4.97;;;;;;;;;;4980791;28;20497;-87
2023/07/23 20:51:45;;;;;;;6.53;5.50;;;19.80;1.00;;;;;;4982848;28;20441;-89
2023/07/23 20:54:12;;;;;;;8.20;5.97;;;19.80;1.00;;;;;;4980580;28;20489;-88
2023/07/23 20:56:39;;;;;;;6.57;5.20;;;;;;;;;;4980307;28;20473;-89
2023/07/23 20:59:07;;;;;;;8.17;5.53;;;;;;;;;;4980415;28;20935;-88
2023/07/23 21:01:36;;;;;;;6.87;6.23;;;19.80;99.90;;;;;;4987515;28;20461;-88
2023/07/23 21:04:10;;;;;;;8.00;5.93;;;19.80;1.00;;;;;;4983694;28;20453;-87
2023/07/23 21:06:43;;;;;;;11.33;7.60;;;19.80;1.00;;;;;;4983388;28;20450;-88
2023/07/23 21:09:15;;;;;;;8.27;6.70;;;19.80;1.00;;;;;;4985126;28;20421;-87
2023/07/23 21:11:43;;;;;;;7.80;6.13;;;;;;;;;;4995135;28;20433;-88
2023/07/23 21:14:12;;;;;;;8.87;5.00;;;;;;;;;;5001675;28;20461;-87
2023/07/23 21:16:41;;;;;;;8.70;6.03;;;19.60;1.00;;;;;;4996797;28;20524;-89
2023/07/23 21:19:09;;;;;;;8.00;5.47;;;;;;;;;;4992728;28;20460;-89
2023/07/23 21:21:36;;;;;;;7.70;5.37;;;;;;;;;;4995172;28;20464;-89
2023/07/23 21:24:05;;;;;;;6.50;5.10;;;;;;;;;;4999650;28;20483;-87
2023/07/23 21:26:46;;;;;;;5.33;4.83;;;19.40;1.00;;;;;;5001261;28;20468;-89
2023/07/23 21:29:15;;;;;;;5.57;5.03;;;19.40;1.00;;;;;;4994222;28;20469;-87
2023/07/23 21:31:42;;;;;;;7.07;5.70;;;;;;;;;;4983907;28;20485;-88
2023/07/23 21:34:11;;;;;;;6.90;6.00;;;19.30;21.20;;;;;;4982718;28;20450;-89
2023/07/23 21:36:38;;;;;;;6.47;5.80;;;;;;;;;;4984321;28;20564;-89
2023/07/23 21:39:04;;;;;;;7.70;5.10;;;;;;;;;;4983686;28;20488;-89
2023/07/23 21:41:36;;;;;;;6.67;5.40;;;19.10;99.90;;;;;;5013536;23;20536;-88
2023/07/23 21:58:00;;;;;;;8.43;5.10;;;18.90;99.90;;;;;;4836975;23;20496;-90
2023/07/23 22:01:04;;;;;;;6.67;5.90;;;19.00;99.90;;;;;;4984679;28;20481;-90
2023/07/23 22:03:50;;;;;;;8.17;5.10;;;18.90;99.90;;;;;;4984287;28;20477;-90
2023/07/23 22:12:51;;;;;;;;;;;;;;;;;;;;;
2023/07/23 23:02:43;;;;;;;5.70;4.80;;;19.30;99.90;;;;;;1246588;23;20890;-89
2023/07/23 23:05:52;;;;;;;4.63;4.17;;;19.50;1.00;;;;;;4928477;28;20445;-89
2023/07/23 23:09:25;;;;;;;;;;;;;;;;;;;;;
